Terminal Aerodrome Forecast
Issued by NWS

Home | Current Version | Previous Version | Text Only | Print | Product List | Glossary On
Versions: 1 2 3 4 5 6 7 8 9 10 11 12 13
000
FTUS42 KTBW 162320
TAFLAL
TAF
KLAL 162320Z 1700/1724 07003KT P6SM SCT250
     FM170900 00000KT 6SM BR FEW010 FEW250
     FM171300 10005KT P6SM FEW020 SCT250
     FM171700 13007KT P6SM SCT250
      AMD NOT SKED 1703/1712=

USA.gov is the U.S. government's official web portal to all federal, state and local government web resources and services.